createdAt,value
2017-11-07T00:01:38.071Z,11.65
2017-11-07T00:04:04.635Z,11.15
2017-11-07T00:06:31.223Z,12.80
2017-11-07T00:08:58.002Z,11.65
2017-11-07T00:11:24.575Z,15.90
2017-11-07T00:13:51.139Z,14.15
2017-11-07T00:16:17.875Z,13.80
2017-11-07T00:18:44.803Z,13.95
2017-11-07T00:21:11.731Z,11.35
2017-11-07T00:23:38.787Z,10.48
2017-11-07T00:26:05.355Z,12.48
2017-11-07T00:28:31.900Z,14.18
2017-11-07T00:30:58.507Z,15.05
2017-11-07T00:33:25.052Z,13.30
2017-11-07T00:35:51.979Z,13.60
2017-11-07T00:38:18.938Z,15.82
2017-11-07T00:40:45.523Z,11.15
2017-11-07T00:43:12.466Z,15.48
2017-11-07T00:45:39.190Z,15.90
2017-11-07T00:48:05.754Z,11.75
2017-11-07T00:50:32.299Z,13.43
2017-11-07T00:52:58.920Z,12.85
2017-11-07T00:55:25.490Z,13.48
2017-11-07T00:57:52.031Z,13.52
2017-11-07T01:00:18.780Z,16.05
2017-11-07T01:02:45.359Z,13.70
2017-11-07T01:05:11.914Z,16.75
2017-11-07T01:07:38.537Z,18.52
2017-11-07T01:10:05.112Z,17.37
2017-11-07T01:12:31.679Z,19.65
2017-11-07T01:14:58.310Z,18.60
2017-11-07T01:17:24.846Z,18.23
2017-11-07T01:19:51.403Z,20.83
2017-11-07T01:22:18.030Z,19.45
2017-11-07T01:24:44.596Z,23.17
2017-11-07T01:27:11.541Z,22.33
2017-11-07T01:29:38.159Z,23.80
2017-11-07T01:32:05.099Z,25.77
2017-11-07T01:34:31.653Z,26.23
2017-11-07T01:36:58.302Z,26.05
2017-11-07T01:39:24.863Z,20.90
2017-11-07T01:41:51.415Z,26.17
2017-11-07T01:44:18.220Z,26.15
2017-11-07T01:46:44.830Z,29.17
2017-11-07T01:49:11.450Z,28.10
2017-11-07T01:51:38.076Z,31.55
2017-11-07T01:54:04.626Z,29.90
2017-11-07T01:56:31.195Z,20.42
2017-11-07T01:58:58.280Z,30.77
2017-11-07T02:01:24.950Z,23.73
2017-11-07T02:03:51.519Z,37.90
2017-11-07T02:06:18.126Z,27.55
2017-11-07T02:08:44.771Z,30.75
2017-11-07T02:11:11.351Z,27.00
2017-11-07T02:13:38.000Z,27.45
2017-11-07T02:16:04.615Z,23.62
2017-11-07T02:18:31.215Z,26.35
2017-11-07T02:20:57.992Z,31.15
2017-11-07T02:23:24.619Z,27.37
2017-11-07T02:25:51.236Z,29.75
2017-11-07T02:28:17.919Z,27.77
2017-11-07T02:30:44.546Z,22.35
2017-11-07T02:33:11.194Z,25.23
2017-11-07T02:35:37.872Z,27.77
2017-11-07T02:38:04.515Z,33.63
2017-11-07T02:40:31.102Z,26.15
2017-11-07T02:42:57.759Z,24.77
2017-11-07T02:45:24.373Z,24.27
2017-11-07T02:47:50.999Z,26.02
2017-11-07T02:50:17.610Z,26.98
2017-11-07T02:52:44.236Z,28.62
2017-11-07T02:55:10.815Z,27.48
2017-11-07T02:57:37.836Z,25.67
2017-11-07T03:00:04.470Z,30.62
2017-11-07T03:02:31.387Z,25.02
2017-11-07T03:04:58.359Z,22.52
2017-11-07T03:07:24.913Z,24.80
2017-11-07T03:09:51.471Z,29.58
2017-11-07T03:12:18.088Z,31.15
2017-11-07T03:14:45.027Z,22.08
2017-11-07T03:17:11.570Z,27.55
2017-11-07T03:19:38.181Z,27.62
2017-11-07T03:22:04.739Z,26.62
2017-11-07T03:36:42.735Z,32.75
2017-11-07T03:39:09.302Z,35.97
2017-11-07T03:41:35.859Z,32.47
2017-11-07T03:44:02.474Z,33.97
2017-11-07T03:46:29.022Z,37.45
2017-11-07T03:48:55.615Z,36.05
2017-11-07T03:51:22.256Z,27.92
2017-11-07T03:53:48.822Z,31.45
2017-11-07T03:56:15.395Z,34.22
2017-11-07T03:58:41.996Z,33.20
2017-11-07T04:01:08.563Z,28.70
2017-11-07T04:03:35.500Z,31.55
2017-11-07T04:06:02.186Z,38.75
2017-11-07T04:08:28.736Z,34.95
2017-11-07T04:10:55.650Z,30.83
2017-11-07T04:13:22.263Z,35.53
2017-11-07T04:15:48.814Z,31.15
2017-11-07T04:18:15.371Z,33.63
2017-11-07T04:20:41.963Z,31.60
2017-11-07T04:23:08.527Z,29.05
2017-11-07T04:25:35.084Z,30.02
2017-11-07T04:28:02.097Z,37.80
2017-11-07T04:30:29.028Z,29.05
2017-11-07T04:32:55.571Z,36.22
2017-11-07T04:35:22.199Z,36.33
2017-11-07T04:37:48.774Z,29.83
2017-11-07T04:40:15.367Z,34.55
2017-11-07T04:42:42.186Z,33.33
2017-11-07T04:45:08.743Z,29.90
2017-11-07T04:47:42.135Z,29.45
2017-11-07T04:50:08.774Z,28.00
2017-11-07T04:52:35.711Z,29.80
2017-11-07T04:55:02.340Z,29.65
2017-11-07T04:57:28.903Z,37.13
2017-11-07T04:59:55.463Z,26.12
2017-11-07T05:02:22.624Z,35.72
2017-11-07T05:04:49.190Z,32.50
2017-11-07T05:07:15.754Z,31.42
2017-11-07T05:09:42.353Z,32.88
2017-11-07T05:12:09.300Z,30.52
2017-11-07T05:14:35.879Z,34.10
2017-11-07T05:17:02.527Z,33.13
2017-11-07T05:19:29.460Z,38.88
2017-11-07T05:21:56.027Z,33.08
2017-11-07T05:24:22.752Z,34.92
2017-11-07T05:26:49.307Z,33.58
2017-11-07T05:29:16.241Z,36.90
2017-11-07T05:31:43.227Z,32.17
2017-11-07T05:34:09.783Z,27.20
2017-11-07T05:36:36.342Z,32.97
2017-11-07T05:39:03.099Z,28.45
2017-11-07T05:41:29.656Z,30.92
2017-11-07T05:43:56.585Z,30.02
2017-11-07T05:46:23.755Z,34.17
2017-11-07T05:48:50.347Z,24.77
2017-11-07T05:51:17.048Z,27.65
2017-11-07T05:53:43.830Z,32.85
2017-11-07T05:56:10.383Z,35.35
2017-11-07T05:58:36.944Z,33.72
2017-11-07T06:01:03.680Z,29.52
2017-11-07T06:03:30.250Z,39.42
2017-11-07T06:05:56.807Z,30.30
2017-11-07T06:08:23.425Z,36.10
2017-11-07T06:10:49.979Z,30.75
2017-11-07T06:13:16.528Z,32.13
2017-11-07T06:15:43.143Z,36.42
2017-11-07T06:18:09.755Z,28.45
2017-11-07T06:20:36.323Z,39.67
2017-11-07T06:23:02.926Z,37.78
2017-11-07T06:25:29.843Z,28.83
2017-11-07T06:27:56.423Z,32.55
2017-11-07T06:30:23.067Z,31.27
2017-11-07T06:32:49.624Z,31.17
2017-11-07T06:35:16.556Z,28.30
2017-11-07T06:37:43.536Z,28.33
2017-11-07T06:40:10.091Z,30.67
2017-11-07T06:42:37.026Z,25.20
2017-11-07T06:45:04.119Z,28.20
2017-11-07T06:47:30.682Z,26.73
2017-11-07T06:49:57.614Z,30.42
2017-11-07T06:52:24.704Z,30.98
2017-11-07T06:54:51.270Z,35.83
2017-11-07T06:57:17.839Z,33.63
2017-11-07T06:59:44.491Z,35.08
2017-11-07T07:02:11.484Z,34.78
2017-11-07T07:04:38.051Z,31.08
2017-11-07T07:07:05.159Z,33.83
2017-11-07T07:09:31.756Z,33.53
2017-11-07T07:11:58.313Z,37.55
2017-11-07T07:14:25.037Z,36.55
2017-11-07T07:16:51.594Z,33.65
2017-11-07T07:19:18.143Z,35.88
2017-11-07T07:21:44.738Z,39.03
2017-11-07T07:24:11.295Z,30.08
2017-11-07T07:26:37.843Z,37.35
2017-11-07T07:29:04.826Z,32.38
2017-11-07T07:31:31.379Z,27.98
2017-11-07T07:33:57.934Z,31.20
2017-11-07T07:36:24.599Z,32.22
2017-11-07T07:38:51.151Z,31.80
2017-11-07T07:41:18.076Z,31.73
2017-11-07T07:43:45.082Z,33.75
2017-11-07T07:46:11.682Z,29.42
2017-11-07T07:48:45.239Z,34.60
2017-11-07T07:51:11.814Z,30.88
2017-11-07T07:53:38.450Z,32.15
2017-11-07T07:56:05.216Z,34.78
2017-11-07T07:58:31.767Z,32.58
2017-11-07T08:00:58.362Z,40.33
2017-11-07T08:03:25.040Z,31.25
2017-11-07T08:05:52.045Z,30.52
2017-11-07T08:08:18.716Z,32.58
2017-11-07T08:10:45.347Z,30.35
2017-11-07T08:13:11.951Z,35.00
2017-11-07T08:15:38.590Z,37.17
2017-11-07T08:18:05.270Z,36.42
2017-11-07T08:20:31.847Z,35.97
2017-11-07T08:22:58.427Z,32.05
2017-11-07T08:25:25.799Z,39.28
2017-11-07T08:27:52.363Z,36.97
2017-11-07T08:30:18.923Z,32.63
2017-11-07T08:32:45.545Z,36.97
2017-11-07T08:35:12.104Z,31.85
2017-11-07T08:37:38.668Z,34.28
2017-11-07T08:40:05.655Z,36.90
2017-11-07T08:42:32.212Z,32.72
2017-11-07T08:44:58.766Z,32.55
2017-11-07T08:47:25.389Z,39.13
2017-11-07T08:49:51.947Z,33.92
2017-11-07T08:52:18.515Z,40.35
2017-11-07T08:54:45.366Z,35.05
2017-11-07T08:57:12.007Z,40.70
2017-11-07T08:59:38.572Z,38.30
2017-11-07T09:02:05.574Z,33.67
2017-11-07T09:04:32.127Z,35.15
2017-11-07T09:06:58.695Z,37.08
2017-11-07T09:09:25.330Z,37.15
2017-11-07T09:11:51.900Z,35.42
2017-11-07T09:14:18.528Z,38.15
2017-11-07T09:16:45.152Z,36.35
2017-11-07T09:19:11.742Z,38.25
2017-11-07T09:21:38.709Z,36.97
2017-11-07T09:24:05.352Z,34.25
2017-11-07T09:26:31.901Z,37.53
2017-11-07T09:28:58.827Z,41.00
2017-11-07T09:31:25.800Z,40.25
2017-11-07T09:33:52.377Z,36.20
2017-11-07T09:36:19.407Z,35.90
2017-11-07T09:38:46.363Z,37.03
2017-11-07T09:46:54.400Z,33.65
2017-11-07T09:49:20.957Z,43.42
2017-11-07T09:51:47.520Z,35.58
2017-11-07T09:54:14.137Z,41.92
2017-11-07T09:56:40.737Z,31.35
2017-11-07T09:59:07.303Z,41.47
2017-11-07T10:01:33.896Z,34.25
2017-11-07T10:04:00.447Z,31.15
2017-11-07T10:06:27.036Z,29.73
2017-11-07T10:08:53.599Z,29.87
2017-11-07T10:11:20.187Z,31.52
2017-11-07T10:13:46.752Z,41.35
2017-11-07T10:16:13.750Z,36.13
2017-11-07T10:18:40.336Z,35.65
2017-11-07T10:21:06.927Z,36.05
2017-11-07T10:23:33.572Z,35.72
2017-11-07T10:26:00.225Z,32.80
2017-11-07T10:28:26.824Z,36.72
2017-11-07T10:30:53.443Z,39.13
2017-11-07T10:33:20.059Z,32.58
2017-11-07T10:35:46.676Z,30.65
2017-11-07T10:38:13.312Z,39.67
2017-11-07T10:40:39.905Z,45.53
2017-11-07T10:43:06.487Z,35.60
2017-11-07T10:45:33.139Z,38.70
2017-11-07T10:47:59.787Z,39.65
2017-11-07T10:50:26.343Z,34.40
2017-11-07T10:52:53.027Z,34.75
2017-11-07T10:55:19.731Z,33.88
2017-11-07T10:57:46.410Z,36.25
2017-11-07T11:00:13.181Z,40.08
2017-11-07T11:02:39.747Z,37.20
2017-11-07T11:05:06.344Z,36.38
2017-11-07T11:07:33.876Z,40.60
2017-11-07T11:10:00.443Z,36.00
2017-11-07T11:12:27.004Z,39.03
2017-11-07T11:14:53.644Z,36.10
2017-11-07T11:17:20.208Z,40.58
2017-11-07T11:19:46.886Z,43.13
2017-11-07T11:22:13.544Z,40.00
2017-11-07T11:24:40.111Z,40.75
2017-11-07T11:27:06.679Z,38.65
2017-11-07T11:29:33.303Z,44.65
2017-11-07T11:31:59.861Z,42.67
2017-11-07T11:34:26.787Z,44.70
2017-11-07T11:36:54.055Z,49.92
2017-11-07T11:39:20.671Z,44.33
2017-11-07T11:41:47.235Z,40.22
2017-11-07T11:44:13.895Z,42.85
2017-11-07T11:46:40.479Z,43.85
2017-11-07T11:49:07.039Z,41.35
2017-11-07T11:51:33.697Z,47.85
2017-11-07T11:54:00.382Z,46.47
2017-11-07T11:56:27.050Z,48.90
2017-11-07T11:58:53.776Z,43.33
2017-11-07T12:01:20.356Z,52.28
2017-11-07T12:03:46.944Z,44.63
2017-11-07T12:06:13.679Z,46.92
2017-11-07T12:08:40.638Z,48.40
2017-11-07T12:11:07.235Z,48.25
2017-11-07T12:13:34.243Z,48.78
2017-11-07T12:16:00.878Z,48.25
2017-11-07T12:18:27.816Z,48.17
2017-11-07T12:20:54.831Z,48.00
2017-11-07T12:23:21.773Z,54.53
2017-11-07T12:25:48.770Z,45.60
2017-11-07T12:28:15.530Z,45.55
2017-11-07T12:30:42.139Z,49.97
2017-11-07T12:33:09.141Z,50.17
2017-11-07T12:35:35.846Z,49.42
2017-11-07T12:38:02.422Z,44.08
2017-11-07T12:40:28.987Z,45.67
2017-11-07T12:42:55.615Z,43.00
2017-11-07T12:45:22.183Z,41.40
2017-11-07T12:47:48.749Z,44.10
2017-11-07T12:50:27.693Z,42.55
2017-11-07T12:52:54.259Z,53.33
2017-11-07T12:55:20.810Z,41.65
2017-11-07T12:57:47.815Z,46.72
2017-11-07T13:00:14.375Z,37.97
2017-11-07T13:02:40.936Z,41.00
2017-11-07T13:05:07.589Z,42.62
2017-11-07T13:07:40.995Z,44.80
2017-11-07T13:10:07.602Z,34.05
2017-11-07T13:12:34.187Z,39.90
2017-11-07T13:15:00.735Z,47.60
2017-11-07T13:17:27.439Z,36.75
2017-11-07T13:19:53.998Z,39.85
2017-11-07T13:22:20.555Z,40.45
2017-11-07T13:24:47.166Z,41.53
2017-11-07T13:27:13.715Z,42.08
2017-11-07T13:29:40.259Z,42.28
2017-11-07T13:32:06.895Z,41.90
2017-11-07T13:34:33.456Z,40.70
2017-11-07T13:37:00.006Z,41.08
2017-11-07T13:39:26.827Z,39.75
2017-11-07T13:41:53.396Z,42.22
2017-11-07T13:44:20.323Z,44.10
2017-11-07T13:46:47.308Z,46.47
2017-11-07T13:49:13.875Z,39.33
2017-11-07T13:51:40.807Z,38.10
2017-11-07T13:54:07.413Z,37.35
2017-11-07T13:56:34.359Z,43.63
2017-11-07T13:59:00.947Z,38.33
2017-11-07T14:01:27.559Z,40.58
2017-11-07T14:03:54.132Z,39.90
2017-11-07T14:06:20.684Z,43.55
2017-11-07T14:08:47.311Z,41.25
2017-11-07T14:11:13.862Z,41.30
2017-11-07T14:13:40.424Z,44.83
2017-11-07T14:16:07.051Z,44.55
2017-11-07T14:18:33.620Z,46.83
2017-11-07T14:21:00.179Z,44.40
2017-11-07T14:23:26.791Z,45.33
2017-11-07T14:25:53.726Z,47.33
2017-11-07T14:28:20.283Z,43.97
2017-11-07T14:30:46.908Z,48.50
2017-11-07T14:33:13.484Z,44.30
2017-11-07T14:35:40.043Z,47.10
2017-11-07T14:38:06.665Z,46.92
2017-11-07T14:40:33.227Z,42.67
2017-11-07T14:43:00.153Z,37.78
2017-11-07T14:45:27.130Z,46.13
2017-11-07T14:47:53.703Z,44.10
2017-11-07T14:50:20.684Z,41.42
2017-11-07T14:52:47.307Z,46.00
2017-11-07T14:55:13.876Z,44.42
2017-11-07T14:57:40.803Z,48.72
2017-11-07T15:00:07.467Z,54.33
2017-11-07T15:02:34.042Z,45.08
2017-11-07T15:05:00.631Z,42.30
2017-11-07T15:07:27.234Z,45.85
2017-11-07T15:09:53.800Z,43.42
2017-11-07T15:12:20.366Z,43.58
2017-11-07T15:14:46.996Z,46.33
2017-11-07T15:17:13.564Z,44.92
2017-11-07T15:19:40.484Z,40.35
2017-11-07T15:22:07.276Z,37.50
2017-11-07T15:24:33.834Z,34.00
2017-11-07T15:27:00.383Z,35.35
2017-11-07T15:29:27.006Z,38.42
2017-11-07T15:31:53.575Z,28.83
2017-11-07T15:34:20.135Z,41.00
2017-11-07T15:36:46.754Z,39.78
2017-11-07T15:39:13.315Z,45.33
2017-11-07T15:41:39.878Z,39.97
2017-11-07T15:44:06.515Z,40.15
2017-11-07T15:46:33.448Z,42.05
2017-11-07T15:49:00.006Z,45.12
2017-11-07T15:51:26.628Z,35.72
2017-11-07T15:53:53.191Z,42.65
2017-11-07T15:56:19.753Z,53.45
2017-11-07T15:58:46.467Z,43.80
2017-11-07T16:01:13.295Z,46.75
2017-11-07T16:03:39.847Z,48.28
2017-11-07T16:06:06.495Z,46.53
2017-11-07T16:08:33.436Z,45.90
2017-11-07T16:11:00.359Z,54.47
2017-11-07T16:13:27.335Z,38.85
2017-11-07T16:15:53.911Z,44.78
2017-11-07T16:18:20.851Z,44.42
2017-11-07T16:20:47.475Z,55.47
2017-11-07T16:23:14.031Z,37.63
2017-11-07T16:25:40.596Z,40.10
2017-11-07T16:28:07.620Z,49.10
2017-11-07T16:30:34.562Z,52.13
2017-11-07T16:33:01.487Z,36.90
2017-11-07T16:35:28.523Z,41.58
2017-11-07T16:37:55.440Z,44.05
2017-11-07T16:40:21.997Z,31.77
2017-11-07T16:42:48.667Z,29.20
2017-11-07T16:45:15.259Z,40.60
2017-11-07T16:47:41.835Z,48.03
2017-11-07T16:50:09.009Z,46.40
2017-11-07T16:52:35.620Z,39.50
2017-11-07T16:55:02.195Z,45.25
2017-11-07T16:57:28.823Z,33.33
2017-11-07T16:59:55.759Z,41.30
2017-11-07T17:02:22.792Z,41.08
2017-11-07T17:04:49.423Z,34.88
2017-11-07T17:07:15.978Z,49.67
2017-11-07T17:09:42.535Z,46.42
2017-11-07T17:12:09.155Z,44.70
2017-11-07T17:14:35.715Z,51.03
2017-11-07T17:17:02.283Z,47.70
2017-11-07T17:19:28.899Z,38.42
2017-11-07T17:21:55.446Z,45.78
2017-11-07T17:24:22.359Z,37.80
2017-11-07T17:26:48.978Z,46.58
2017-11-07T17:29:15.531Z,46.33
2017-11-07T17:31:42.083Z,42.92
2017-11-07T17:34:08.760Z,45.63
2017-11-07T17:36:35.699Z,51.22
2017-11-07T17:39:02.335Z,37.40
2017-11-07T17:41:28.963Z,44.70
2017-11-07T17:43:55.523Z,50.60
2017-11-07T17:46:22.122Z,47.30
2017-11-07T17:48:48.752Z,47.28
2017-11-07T17:51:15.331Z,47.83
2017-11-07T17:53:41.887Z,50.58
2017-11-07T17:56:08.556Z,52.15
2017-11-07T17:58:35.480Z,49.55
2017-11-07T18:01:02.410Z,47.95
2017-11-07T18:03:29.575Z,44.75
2017-11-07T18:05:56.123Z,46.67
2017-11-07T18:08:22.683Z,53.28
2017-11-07T18:10:49.678Z,36.38
2017-11-07T18:13:16.244Z,49.90
2017-11-07T18:15:42.807Z,47.62
2017-11-07T18:18:09.415Z,38.10
2017-11-07T18:20:35.980Z,47.67
2017-11-07T18:23:02.539Z,45.58
2017-11-07T18:25:29.161Z,39.90
2017-11-07T18:27:55.718Z,50.45
2017-11-07T18:30:22.312Z,47.85
2017-11-07T18:32:48.927Z,46.00
2017-11-07T18:35:15.499Z,49.50
2017-11-07T18:37:42.056Z,48.00
2017-11-07T18:40:08.683Z,46.97
2017-11-07T18:42:35.272Z,47.80
2017-11-07T18:45:02.199Z,49.47
2017-11-07T18:47:29.187Z,45.08
2017-11-07T18:49:55.743Z,53.40
2017-11-07T18:52:22.431Z,51.72
2017-11-07T18:54:49.045Z,53.45
2017-11-07T18:57:15.604Z,47.78
2017-11-07T18:59:42.155Z,51.00
2017-11-07T19:02:08.811Z,50.92
2017-11-07T19:04:35.454Z,53.70
2017-11-07T19:07:02.323Z,50.72
2017-11-07T19:09:29.004Z,49.47
2017-11-07T19:11:55.983Z,48.25
2017-11-07T19:14:22.614Z,45.53
2017-11-07T19:16:49.451Z,53.60
2017-11-07T19:19:15.994Z,51.45
2017-11-07T19:21:42.570Z,40.65
2017-11-07T19:24:09.362Z,46.17
2017-11-07T19:26:35.968Z,47.83
2017-11-07T19:29:02.551Z,51.97
2017-11-07T19:31:29.242Z,46.40
2017-11-07T19:33:56.192Z,50.83
2017-11-07T19:36:22.795Z,47.42
2017-11-07T19:38:49.431Z,49.08
2017-11-07T19:41:16.040Z,46.00
2017-11-07T19:43:42.671Z,46.55
2017-11-07T19:46:09.317Z,44.35
2017-11-07T19:48:35.880Z,40.75
2017-11-07T19:51:02.440Z,47.60
2017-11-07T19:53:29.158Z,45.40
2017-11-07T19:55:55.775Z,45.72
2017-11-07T19:58:22.354Z,48.92
2017-11-07T20:00:49.016Z,58.28
2017-11-07T20:03:15.574Z,49.53
2017-11-07T20:05:42.224Z,54.30
2017-11-07T20:08:09.767Z,62.45
2017-11-07T20:10:36.589Z,51.70
2017-11-07T20:13:03.256Z,53.95
2017-11-07T20:15:29.908Z,55.28
2017-11-07T20:17:56.485Z,53.65
2017-11-07T20:20:23.438Z,56.13
2017-11-07T20:22:50.805Z,71.82
2017-11-07T20:25:17.367Z,50.20
2017-11-07T20:27:43.935Z,37.20
2017-11-07T20:30:10.546Z,46.10
2017-11-07T20:32:37.120Z,42.28
2017-11-07T20:35:04.075Z,49.25
2017-11-07T20:37:30.719Z,49.17
2017-11-07T20:39:57.294Z,52.10
2017-11-07T20:42:23.859Z,41.70
2017-11-07T20:44:50.504Z,41.25
2017-11-07T20:47:17.979Z,48.72
2017-11-07T20:49:44.539Z,39.65
2017-11-07T20:52:11.142Z,42.85
2017-11-07T20:54:37.728Z,36.30
2017-11-07T20:57:04.659Z,41.37
2017-11-07T20:59:31.651Z,43.33
2017-11-07T21:01:58.216Z,35.17
2017-11-07T21:04:24.785Z,35.25
2017-11-07T21:06:51.453Z,29.30
2017-11-07T21:09:18.372Z,24.42
2017-11-07T21:11:45.295Z,28.35
2017-11-07T21:14:12.163Z,29.95
2017-11-07T21:16:38.727Z,33.47
2017-11-07T21:19:05.311Z,31.20
2017-11-07T21:21:31.958Z,35.00
2017-11-07T21:23:58.511Z,33.40
2017-11-07T21:26:25.087Z,34.65
2017-11-07T21:28:51.711Z,41.47
2017-11-07T21:31:18.272Z,45.08
2017-11-07T21:33:45.211Z,36.55
2017-11-07T21:36:12.199Z,31.15
2017-11-07T21:38:38.770Z,32.58
2017-11-07T21:41:05.347Z,35.42
2017-11-07T21:43:32.062Z,32.55
2017-11-07T21:45:59.050Z,29.17
2017-11-07T21:48:25.620Z,28.27
2017-11-07T21:50:52.506Z,31.25
2017-11-07T21:53:26.105Z,35.20
2017-11-07T21:55:52.980Z,33.00
2017-11-07T21:58:19.695Z,32.15
2017-11-07T22:00:46.641Z,27.48
2017-11-07T22:03:13.271Z,31.48
2017-11-07T22:05:39.870Z,26.80
2017-11-07T22:08:06.414Z,27.80
2017-11-07T22:10:33.133Z,32.25
2017-11-07T22:12:59.695Z,28.15
2017-11-07T22:15:26.255Z,25.15
2017-11-07T22:17:55.243Z,22.17
2017-11-07T22:20:21.795Z,28.02
2017-11-07T22:22:48.343Z,26.05
2017-11-07T22:25:15.903Z,27.65
2017-11-07T22:27:43.239Z,29.33
2017-11-07T22:30:09.870Z,29.80
2017-11-07T22:32:36.487Z,28.73
2017-11-07T22:35:03.197Z,27.80
2017-11-07T22:37:29.747Z,30.85
2017-11-07T22:39:56.723Z,27.80
2017-11-07T22:42:23.316Z,28.98
2017-11-07T22:44:49.867Z,30.10
2017-11-07T22:47:16.474Z,27.83
2017-11-07T22:49:43.026Z,29.23
2017-11-07T22:52:09.591Z,31.90
2017-11-07T22:54:36.436Z,35.90
2017-11-07T22:57:03.012Z,34.75
2017-11-07T22:59:29.598Z,37.03
2017-11-07T23:01:56.211Z,31.12
2017-11-07T23:04:22.775Z,30.25
2017-11-07T23:06:49.740Z,29.17
2017-11-07T23:09:16.341Z,27.35
2017-11-07T23:11:42.907Z,29.23
2017-11-07T23:14:09.471Z,31.92
2017-11-07T23:16:36.458Z,32.50
2017-11-07T23:19:03.019Z,35.28
2017-11-07T23:21:29.985Z,29.23
2017-11-07T23:23:56.595Z,30.88
2017-11-07T23:26:23.167Z,29.27
2017-11-07T23:28:49.724Z,27.80
2017-11-07T23:31:16.326Z,29.87
2017-11-07T23:33:43.250Z,27.58
2017-11-07T23:36:10.176Z,31.17
2017-11-07T23:38:37.175Z,31.58
2017-11-07T23:41:03.726Z,32.03
2017-11-07T23:43:30.275Z,32.65
2017-11-07T23:45:56.887Z,28.75
2017-11-07T23:48:23.451Z,26.10
2017-11-07T23:50:50.008Z,30.15
2017-11-07T23:53:16.996Z,29.15
2017-11-07T23:55:43.574Z,30.37
2017-11-07T23:58:10.140Z,35.13
